Alburg, Vermont
Current Conditions -  °F | °C
As of 2:15 AM on Sunday 21 Dec 2014 (Local Time) from KFSO Reporting Station
Haze Haze  
Wind Chill: 16°   Ceiling: 300
Heat Index: 16°   Visibility: 0.75mi
Dew Point: 14°   Wind: 0mph
Humidity: 94%   Direction: NA
Pressure: 30.35"   Gusts: NA
Location:  44.9685°N, 73.281°W
Report Text: KFSO 210615Z AUTO 00000KT 3/4SM BR OVC003 M09/M10 A3035 RMK AO2 T10901098
Loading
Personal Weather Stations






























Interactive Weather Map New forecast layout! Learn more

10-Day Weather Forecast

Advertisements
Track Severe Weather on mobile